Time;durP1;ratioP1;P1;durP2;ratioP2;P2;SDS_P1;SDS_P2;PMS_P1;PMS_P2;Temp;Humidity;BMP_temperature;BMP_pressure;BME280_temperature;BME280_humidity;BME280_pressure;Samples;Min_cycle;Max_cycle;Signal;HPM_P1;HPM_P2
2024/03/28 00:00:18;;;;;;;14.23;2.58;;;;;;;15.72;58.37;98346.28;4873212;29;20032;-92
2024/03/28 00:02:43;;;;;;;14.88;3.35;;;;;;;15.70;58.30;98341.13;4857420;29;20448;-92
2024/03/28 00:05:09;;;;;;;18.15;2.90;;;;;;;15.60;58.29;98308.16;4872022;29;20033;-93
2024/03/28 00:07:34;;;;;;;12.98;3.20;;;;;;;15.76;57.95;98333.66;4856798;29;20043;-92
2024/03/28 00:10:00;;;;;;;13.32;2.85;;;;;;;15.73;57.54;98307.19;4856576;29;20059;-90
2024/03/28 00:12:25;;;;;;;12.35;2.90;;;;;;;15.78;57.91;98306.97;4856631;29;20088;-92
2024/03/28 00:14:51;;;;;;;10.55;2.90;;;;;;;15.76;57.83;98301.88;4856817;29;20017;-91
2024/03/28 00:17:17;;;;;;;12.95;2.80;;;;;;;15.62;58.31;98295.06;4871480;29;20032;-91
2024/03/28 00:19:43;;;;;;;15.95;3.20;;;;;;;15.68;57.73;98288.31;4887761;29;20398;-90
2024/03/28 00:22:08;;;;;;;13.02;3.00;;;;;;;15.63;57.47;98283.09;4858470;29;20111;-91
2024/03/28 00:24:34;;;;;;;12.48;2.70;;;;;;;15.69;57.81;98295.34;4873936;29;20036;-92
2024/03/28 00:26:59;;;;;;;14.35;2.45;;;;;;;15.54;57.82;98273.09;4870912;29;20029;-91
2024/03/28 00:29:25;;;;;;;11.55;3.13;;;;;;;15.66;57.55;98271.56;4871501;29;20040;-92
2024/03/28 00:31:50;;;;;;;12.82;2.70;;;;;;;15.71;57.14;98266.75;4857173;29;20104;-92
2024/03/28 00:34:15;;;;;;;16.42;3.10;;;;;;;15.71;56.78;98261.34;4856741;29;20036;-93
2024/03/28 00:36:41;;;;;;;13.05;2.85;;;;;;;15.78;56.78;98268.19;4870911;29;20039;-92
2024/03/28 00:39:08;;;;;;;14.32;2.58;;;;;;;15.84;56.24;98281.22;4855868;29;20039;-91
2024/03/28 00:41:34;;;;;;;18.70;3.08;;;;;;;15.81;56.53;98265.59;4869947;29;20095;-91
2024/03/28 00:43:59;;;;;;;13.55;2.35;;;;;;;15.81;56.31;98259.38;4871408;29;20024;-91
2024/03/28 00:46:25;;;;;;;13.35;3.08;;;;;;;15.80;56.30;98245.00;4855639;29;20096;-91
2024/03/28 00:48:50;;;;;;;11.57;2.75;;;;;;;15.81;56.30;98252.00;4870054;29;20033;-92
2024/03/28 00:51:16;;;;;;;11.05;2.47;;;;;;;15.72;56.08;98226.88;4854932;29;20028;-93
2024/03/28 00:53:41;;;;;;;10.80;2.55;;;;;;;15.75;55.70;98212.66;4870734;29;20048;-92
2024/03/28 00:56:07;;;;;;;9.82;2.90;;;;;;;15.85;55.69;98228.50;4885600;29;20041;-91
2024/03/28 00:58:32;;;;;;;15.32;2.60;;;;;;;15.86;55.70;98213.81;4870831;29;20033;-91
2024/03/28 01:01:01;;;;;;;10.15;3.13;;;;;;;16.02;55.29;98222.16;4870506;29;20070;-91
2024/03/28 01:03:27;;;;;;;9.73;2.50;;;;;;;15.99;55.00;98211.16;4886196;29;20041;-91
2024/03/28 01:05:59;;;;;;;9.48;2.40;;;;;;;16.02;55.39;98210.50;4871377;29;20024;-90
2024/03/28 01:08:25;;;;;;;;;;;;;;;16.12;55.09;98220.94;4855079;29;20044;-91
2024/03/28 01:10:51;;;;;;;14.02;2.65;;;;;;;16.12;54.87;98226.38;4870765;29;20378;-92
2024/03/28 01:13:17;;;;;;;12.52;2.67;;;;;;;16.01;55.17;98190.69;4870868;29;20511;-91
2024/03/28 01:15:42;;;;;;;12.23;2.38;;;;;;;16.00;55.25;98201.88;4869853;29;20016;-92
2024/03/28 01:18:08;;;;;;;12.13;2.42;;;;;;;16.02;55.47;98195.03;4871167;29;20040;-91
2024/03/28 01:20:34;;;;;;;13.02;2.10;;;;;;;16.01;55.38;98208.91;4869223;29;20033;-93
2024/03/28 01:23:00;;;;;;;16.17;2.80;;;;;;;16.11;55.30;98228.31;4854682;29;20032;-92
2024/03/28 01:25:25;;;;;;;12.73;2.35;;;;;;;16.17;54.82;98243.28;4869976;29;20028;-92
2024/03/28 01:27:50;;;;;;;10.35;2.22;;;;;;;16.10;55.13;98243.03;4869932;29;20059;-92
2024/03/28 01:30:16;;;;;;;11.00;2.40;;;;;;;16.06;55.13;98216.84;4869967;29;20092;-91
2024/03/28 01:32:42;;;;;;;12.88;2.85;;;;;;;16.19;55.28;98239.44;4869172;29;20439;-91
2024/03/28 01:35:10;;;;;;;14.23;2.22;;;;;;;16.14;55.00;98234.97;4870578;29;20063;-91
2024/03/28 01:37:35;;;;;;;9.63;2.15;;;;;;;16.11;55.22;98209.28;4870458;29;20039;-91
2024/03/28 01:40:03;;;;;;;17.80;2.92;;;;;;;16.08;55.09;98193.69;4863744;29;20432;-91
2024/03/28 01:42:28;;;;;;;10.00;2.33;;;;;;;16.20;55.10;98200.28;4867217;29;20032;-91
2024/03/28 01:44:54;;;;;;;18.38;2.65;;;;;;;16.20;54.72;98203.78;4852186;29;20029;-91
2024/03/28 01:47:19;;;;;;;12.52;2.40;;;;;;;16.12;55.13;98201.94;4851964;29;20057;-93
2024/03/28 01:49:45;;;;;;;9.55;2.67;;;;;;;16.29;55.15;98230.84;4836415;29;20036;-93
2024/03/28 01:52:12;;;;;;;21.48;3.22;;;;;;;16.37;54.46;98219.09;4851328;29;20021;-93
2024/03/28 01:54:38;;;;;;;13.85;2.58;;;;;;;16.28;54.42;98196.69;4868754;29;20036;-94
2024/03/28 01:57:04;;;;;;;12.75;3.00;;;;;;;16.30;54.64;98197.13;4852774;29;20100;-93
2024/03/28 01:59:33;;;;;;;9.18;2.30;;;;;;;16.36;54.69;98209.38;4851106;29;20025;-91
2024/03/28 02:01:58;;;;;;;9.15;2.38;;;;;;;16.29;54.04;98193.63;4852305;29;20143;-92
2024/03/28 02:04:25;;;;;;;13.85;2.85;;;;;;;16.14;54.77;98196.97;4852795;29;20068;-93
2024/03/28 02:06:51;;;;;;;11.55;3.00;;;;;;;16.26;54.29;98198.94;4854616;29;20037;-93
2024/03/28 02:09:17;;;;;;;10.55;2.97;;;;;;;16.45;54.17;98234.53;4851973;29;20018;-93
2024/03/28 02:11:42;;;;;;;12.07;3.45;;;;;;;16.48;54.06;98236.59;4851966;29;20059;-93
2024/03/28 02:14:08;;;;;;;14.48;2.90;;;;;;;16.36;54.01;98215.59;4836036;29;20033;-94
2024/03/28 02:16:37;;;;;;;9.95;2.55;;;;;;;16.39;53.97;98224.22;4836223;29;20025;-93
2024/03/28 02:19:03;;;;;;;12.80;2.85;;;;;;;16.47;54.67;98223.34;4851583;29;20056;-94
2024/03/28 02:21:28;;;;;;;10.20;3.15;;;;;;;16.52;54.39;98217.69;4868101;29;20029;-93
2024/03/28 02:23:54;;;;;;;9.70;2.65;;;;;;;16.37;54.47;98202.81;4837571;29;20036;-93
2024/03/28 02:26:21;;;;;;;14.20;3.35;;;;;;;16.32;54.36;98197.59;4837947;29;20499;-93
2024/03/28 02:28:46;;;;;;;9.73;2.85;;;;;;;16.41;54.00;98198.28;4853031;29;20024;-93
2024/03/28 02:31:12;;;;;;;14.05;2.88;;;;;;;16.36;54.49;98202.03;4852366;29;20414;-94
2024/03/28 02:33:38;;;;;;;15.50;2.92;;;;;;;16.39;54.46;98195.13;4853211;29;20037;-94
2024/03/28 02:36:04;;;;;;;16.55;3.55;;;;;;;16.33;54.50;98185.59;4851195;29;20044;-93
2024/03/28 02:38:29;;;;;;;16.88;3.47;;;;;;;16.36;54.56;98177.56;4851764;29;20475;-93
2024/03/28 02:40:55;;;;;;;16.83;2.95;;;;;;;16.41;54.02;98178.50;4860979;29;20116;-94
2024/03/28 02:43:20;;;;;;;14.15;2.95;;;;;;;16.43;53.92;98179.72;4851992;29;20113;-93
2024/03/28 02:45:46;;;;;;;16.55;2.53;;;;;;;16.40;53.89;98180.41;4852473;29;20033;-92
2024/03/28 02:48:12;;;;;;;11.88;2.45;;;;;;;16.40;53.79;98183.13;4852745;29;20033;-93
2024/03/28 02:50:37;;;;;;;12.40;2.47;;;;;;;16.39;53.67;98188.91;4851399;29;20025;-92
2024/03/28 02:53:03;;;;;;;10.25;2.45;;;;;;;16.50;53.83;98207.16;4851665;29;20032;-92
2024/03/28 02:55:28;;;;;;;9.63;2.28;;;;;;;16.49;53.34;98199.34;4852343;29;20025;-93
2024/03/28 02:57:54;;;;;;;6.03;2.35;;;;;;;16.40;53.45;98185.84;4851192;29;20025;-89
2024/03/28 03:00:19;;;;;;;8.52;2.33;;;;;;;16.49;53.36;98211.00;4851483;29;20033;-92
2024/03/28 03:02:45;;;;;;;9.13;2.22;;;;;;;16.41;53.44;98214.59;4851839;29;20032;-92
2024/03/28 03:05:10;;;;;;;13.38;2.38;;;;;;;16.39;53.44;98208.69;4852117;29;20044;-93
2024/03/28 03:07:36;;;;;;;11.52;2.60;;;;;;;16.50;53.59;98209.09;4852660;29;20028;-91
2024/03/28 03:10:01;;;;;;;13.23;2.75;;;;;;;16.32;53.74;98184.81;4850535;29;20496;-91
2024/03/28 03:12:27;;;;;;;10.30;2.50;;;;;;;16.33;53.42;98175.53;4851130;29;20024;-91
2024/03/28 03:14:53;;;;;;;10.75;2.15;;;;;;;16.24;53.55;98163.97;4850375;29;20112;-93
2024/03/28 03:17:18;;;;;;;9.82;2.50;;;;;;;16.42;53.55;98174.66;4851026;29;20036;-92
2024/03/28 03:19:44;;;;;;;13.68;2.42;;;;;;;16.44;53.54;98183.25;4835256;29;20385;-94
2024/03/28 03:22:10;;;;;;;10.70;2.30;;;;;;;16.24;53.56;98180.25;4850307;29;20453;-93
2024/03/28 03:24:38;;;;;;;10.48;2.55;;;;;;;16.28;53.68;98167.59;4851578;29;20025;-93
2024/03/28 03:27:04;;;;;;;11.50;2.55;;;;;;;16.28;53.28;98161.38;4853577;29;20453;-93
2024/03/28 03:35:01;;;;;;;10.73;2.65;;;;;;;16.16;54.01;98165.66;4858330;29;20021;-93
2024/03/28 03:37:27;;;;;;;12.52;2.83;;;;;;;16.23;53.73;98177.88;4868725;29;20084;-92
2024/03/28 03:39:56;;;;;;;9.73;2.17;;;;;;;16.17;53.74;98167.22;4853447;29;20084;-93
2024/03/28 03:42:22;;;;;;;14.18;3.20;;;;;;;16.18;53.91;98162.59;4855023;29;20036;-93
2024/03/28 03:44:47;;;;;;;12.27;2.78;;;;;;;16.17;53.76;98161.78;4853330;29;20036;-92
2024/03/28 03:47:13;;;;;;;17.88;2.92;;;;;;;16.19;54.11;98157.97;4853906;29;20097;-93
2024/03/28 03:49:43;;;;;;;11.85;2.95;;;;;;;16.10;54.04;98149.88;4853850;29;20025;-93
2024/03/28 03:52:14;;;;;;;9.80;2.45;;;;;;;16.17;54.28;98161.00;4854101;29;20029;-93
2024/03/28 03:54:39;;;;;;;20.88;3.33;;;;;;;16.22;54.21;98168.94;4853761;29;20055;-93
2024/03/28 03:57:05;;;;;;;11.80;2.90;;;;;;;16.24;53.92;98161.25;4853838;29;20028;-93
2024/03/28 03:59:35;;;;;;;8.90;2.40;;;;;;;15.96;54.32;98137.41;4868322;29;20025;-91
2024/03/28 04:02:01;;;;;;;11.90;2.33;;;;;;;15.97;54.22;98146.34;4854518;29;20029;-92
2024/03/28 04:04:26;;;;;;;19.27;3.20;;;;;;;16.09;54.19;98151.03;4856279;29;20029;-91
2024/03/28 04:06:52;;;;;;;13.60;3.20;;;;;;;16.10;53.82;98156.13;4855827;29;20032;-91
2024/03/28 04:09:17;;;;;;;9.00;2.72;;;;;;;16.24;53.40;98152.31;4854130;29;20048;-92
2024/03/28 04:11:43;;;;;;;18.15;3.00;;;;;;;16.20;53.20;98137.81;4868561;29;20032;-93
2024/03/28 04:14:11;;;;;;;12.05;2.95;;;;;;;16.33;53.32;98159.25;4852206;29;20038;-92
2024/03/28 04:16:37;;;;;;;15.00;2.88;;;;;;;16.14;53.38;98126.34;4853030;29;20488;-92
2024/03/28 04:19:02;;;;;;;13.65;2.90;;;;;;;16.23;53.48;98140.66;4867628;29;20025;-92
2024/03/28 04:21:29;;;;;;;12.98;2.50;;;;;;;16.08;53.01;98130.41;4853590;29;20040;-94
2024/03/28 04:23:57;;;;;;;16.35;2.88;;;;;;;16.17;53.02;98131.13;4851710;29;20503;-93
2024/03/28 04:26:22;;;;;;;11.20;2.83;;;;;;;16.31;52.26;98147.09;4852314;29;20032;-92
2024/03/28 04:28:48;;;;;;;9.50;3.10;;;;;;;16.30;52.12;98126.53;4852893;29;20025;-92
2024/03/28 04:31:14;;;;;;;12.93;2.65;;;;;;;16.34;52.66;98136.38;4852120;29;20488;-93
2024/03/28 04:33:39;;;;;;;14.35;2.75;;;;;;;16.43;52.28;98143.63;4852308;29;20081;-93
2024/03/28 04:36:05;;;;;;;15.38;2.35;;;;;;;16.26;52.45;98122.88;4852055;29;20029;-92
2024/03/28 04:38:31;;;;;;;11.35;2.70;;;;;;;16.32;52.45;98119.59;4851780;29;20104;-92
2024/03/28 04:40:57;;;;;;;12.82;2.58;;;;;;;16.39;51.80;98131.84;4864721;29;20053;-91
2024/03/28 04:43:22;;;;;;;10.32;2.90;;;;;;;16.45;51.27;98127.78;4869811;29;20080;-92
2024/03/28 04:45:51;;;;;;;13.10;2.45;;;;;;;16.40;50.98;98125.28;4871813;29;20432;-92
2024/03/28 04:48:17;;;;;;;12.85;2.75;;;;;;;16.48;51.02;98138.00;4872155;29;20024;-92
2024/03/28 04:50:43;;;;;;;8.25;2.42;;;;;;;16.53;50.91;98156.78;4869556;29;20024;-91
2024/03/28 04:53:08;;;;;;;8.65;2.30;;;;;;;16.55;51.23;98157.22;4870514;29;20024;-93
2024/03/28 04:55:34;;;;;;;12.88;3.33;;;;;;;16.59;50.96;98168.22;4869802;29;20024;-92
2024/03/28 04:57:59;;;;;;;13.85;2.90;;;;;;;16.60;50.68;98176.06;4869706;29;20028;-93
2024/03/28 05:00:25;;;;;;;10.90;2.90;;;;;;;16.68;50.67;98204.22;4883268;29;20027;-92
2024/03/28 05:02:50;;;;;;;12.75;2.53;;;;;;;16.57;50.80;98179.44;4864976;29;20032;-91
2024/03/28 05:05:17;;;;;;;13.50;2.63;;;;;;;16.64;50.68;98192.44;4877285;29;20044;-92
2024/03/28 05:07:42;;;;;;;9.02;3.40;;;;;;;16.70;50.86;98207.41;4860949;29;20028;-91
2024/03/28 05:10:08;;;;;;;20.88;2.53;;;;;;;16.67;51.12;98217.03;4889491;29;20039;-91
2024/03/28 05:12:34;;;;;;;12.65;2.75;;;;;;;16.60;51.15;98208.66;4907134;29;20052;-92
2024/03/28 05:15:03;;;;;;;14.80;2.72;;;;;;;16.69;51.03;98222.16;4905057;29;20027;-91
2024/03/28 05:17:29;;;;;;;11.75;2.53;;;;;;;16.70;50.71;98232.66;4877491;29;20055;-92
2024/03/28 05:19:59;;;;;;;13.15;3.33;;;;;;;16.65;50.58;98215.81;4905449;29;20070;-91
2024/03/28 05:22:26;;;;;;;18.65;2.60;;;;;;;16.75;51.02;98237.91;4888869;29;20518;-91
2024/03/28 05:24:55;;;;;;;10.65;2.72;;;;;;;16.70;50.96;98235.38;4890559;29;20092;-95
2024/03/28 05:27:21;;;;;;;15.35;3.17;;;;;;;16.66;50.77;98229.03;4908318;29;20084;-96
2024/03/28 05:29:49;;;;;;;26.85;3.83;;;;;;;16.94;50.99;98259.13;4891556;29;20024;-94
2024/03/28 05:32:19;;;;;;;15.07;3.05;;;;;;;16.77;51.18;98248.44;4891299;29;20134;-96
2024/03/28 05:34:50;;;;;;;12.55;3.10;;;;;;;16.79;50.92;98235.31;4906881;29;20590;-95
2024/03/28 05:37:16;;;;;;;14.32;3.17;;;;;;;16.91;50.70;98242.69;4900432;29;20058;-94
2024/03/28 05:39:41;;;;;;;14.45;2.97;;;;;;;17.04;50.97;98260.63;4874060;29;20060;-94
2024/03/28 05:42:07;;;;;;;20.30;3.15;;;;;;;16.98;50.42;98234.78;4857154;29;20099;-94
2024/03/28 05:44:33;;;;;;;13.80;3.50;;;;;;;17.11;50.62;98236.38;4855715;29;20096;-95
2024/03/28 05:46:59;;;;;;;21.08;3.08;;;;;;;16.99;50.56;98232.84;4857418;29;20087;-94
2024/03/28 05:49:24;;;;;;;10.73;2.75;;;;;;;17.16;50.56;98230.72;4886581;29;20039;-94
2024/03/28 05:51:50;;;;;;;13.70;2.85;;;;;;;17.06;50.78;98219.50;4857894;29;20033;-94
2024/03/28 05:54:19;;;;;;;9.65;3.08;;;;;;;17.13;50.43;98219.72;4858851;29;20083;-95
2024/03/28 05:56:50;;;;;;;25.67;3.60;;;;;;;17.13;50.69;98223.22;4860493;29;20033;-93
2024/03/28 05:59:16;;;;;;;18.23;3.28;;;;;;;17.16;50.64;98236.16;4891717;29;20127;-95
2024/03/28 06:01:44;;;;;;;17.77;3.00;;;;;;;17.12;50.59;98246.13;4857436;29;20415;-93
2024/03/28 06:04:12;;;;;;;10.80;2.90;;;;;;;17.31;50.36;98251.00;4857000;29;20506;-93
2024/03/28 06:06:38;;;;;;;10.70;2.90;;;;;;;17.12;50.43;98215.41;4854585;29;20155;-93
2024/03/28 06:09:04;;;;;;;10.95;3.40;;;;;;;17.33;50.31;98224.25;4871424;29;20082;-93
2024/03/28 06:11:29;;;;;;;17.70;2.67;;;;;;;17.25;50.16;98218.94;4858866;29;20032;-94
2024/03/28 06:13:55;;;;;;;16.45;3.33;;;;;;;17.26;49.89;98198.75;4885624;29;20037;-94
2024/03/28 06:16:22;;;;;;;17.75;3.40;;;;;;;17.30;50.46;98235.78;4855916;29;20029;-95
2024/03/28 06:18:48;;;;;;;10.65;2.72;;;;;;;17.31;50.34;98223.78;4873301;29;20048;-95
2024/03/28 06:21:13;;;;;;;18.02;3.38;;;;;;;17.31;50.29;98234.69;4871048;29;20513;-95
2024/03/28 06:27:12;;;;;;;11.30;3.33;;;;;;;17.58;49.40;98235.88;4880994;29;20157;-90
2024/03/28 06:36:25;;;;;;;20.90;3.83;;;;;;;17.87;48.45;98264.00;4885194;29;20041;-92
2024/03/28 06:38:51;;;;;;;13.88;3.28;;;;;;;18.02;48.13;98269.88;4854144;29;20135;-91
2024/03/28 06:41:16;;;;;;;16.13;3.03;;;;;;;18.00;48.37;98264.75;4855322;29;20049;-95
2024/03/28 06:43:42;;;;;;;16.52;3.33;;;;;;;18.08;47.92;98263.84;4854406;29;20029;-91
2024/03/28 06:46:10;;;;;;;22.95;3.40;;;;;;;17.86;48.04;98248.00;4854021;29;20037;-93
2024/03/28 06:48:36;;;;;;;23.88;7.95;;;;;;;18.12;47.81;98264.72;4862547;29;20124;-95
2024/03/28 06:51:25;;;;;;;16.90;4.78;;;;;;;18.44;47.21;98296.75;4850887;29;20484;-93
2024/03/28 06:53:53;;;;;;;20.42;4.68;;;;;;;18.39;47.51;98273.25;4901476;29;20047;-93
2024/03/28 06:56:36;;;;;;;12.18;3.53;;;;;;;18.42;46.85;98269.03;4879481;29;20172;-94
2024/03/28 06:59:02;;;;;;;20.90;6.75;;;;;;;18.52;46.92;98282.16;4886215;29;20060;-91
2024/03/28 07:01:27;;;;;;;16.70;3.10;;;;;;;18.78;46.91;98312.53;4885670;29;20494;-93
2024/03/28 07:04:20;;;;;;;25.40;4.75;;;;;;;18.73;45.44;98293.63;4871557;29;20033;-93
2024/03/28 07:06:51;;;;;;;24.20;4.35;;;;;;;18.81;45.50;98310.25;4869113;29;20044;-92
2024/03/28 07:09:22;;;;;;;22.60;4.15;;;;;;;19.00;45.43;98328.66;4854871;29;20028;-92
2024/03/28 07:11:48;;;;;;;18.15;4.70;;;;;;;19.00;45.01;98313.06;4867699;29;20045;-94
2024/03/28 07:14:18;;;;;;;17.90;3.75;;;;;;;19.24;44.74;98346.81;4854887;29;20059;-92
2024/03/28 07:16:44;;;;;;;21.75;3.42;;;;;;;19.24;44.81;98344.09;4853395;29;20036;-91
2024/03/28 07:19:10;;;;;;;18.95;3.78;;;;;;;19.41;44.41;98359.34;4867450;29;20402;-91
2024/03/28 07:22:01;;;;;;;16.88;4.00;;;;;;;19.44;44.64;98364.06;4869525;29;20037;-92
2024/03/28 07:24:30;;;;;;;13.07;3.05;;;;;;;19.55;44.16;98368.66;4863547;29;20068;-94
2024/03/28 07:26:56;;;;;;;23.52;5.35;;;;;;;19.59;44.37;98380.47;4869187;29;20076;-93
2024/03/28 07:29:24;;;;;;;23.17;7.05;;;;;;;19.43;44.31;98371.47;4854998;29;20033;-94
2024/03/28 07:32:02;;;;;;;16.50;5.57;;;;;;;19.57;44.84;98374.56;4856129;29;20055;-94
2024/03/28 07:34:28;;;;;;;14.43;4.22;;;;;;;19.74;44.45;98373.44;4883510;29;20146;-91
2024/03/28 07:37:02;;;;;;;21.08;5.22;;;;;;;19.70;44.36;98358.91;4871463;29;20033;-92
2024/03/28 07:39:28;;;;;;;15.82;5.10;;;;;;;19.98;44.05;98393.47;4871528;29;20032;-94
2024/03/28 07:41:56;;;;;;;21.23;4.20;;;;;;;19.79;44.09;98347.78;4858802;29;20032;-96
2024/03/28 07:44:25;;;;;;;28.58;5.18;;;;;;;19.83;44.43;98362.31;4860288;29;20132;-94
2024/03/28 07:46:51;;;;;;;15.05;4.18;;;;;;;19.93;44.32;98363.72;4855944;29;20032;-92
2024/03/28 07:49:17;;;;;;;15.30;3.40;;;;;;;19.98;44.25;98375.16;4874476;29;20025;-93
2024/03/28 07:51:45;;;;;;;19.45;4.07;;;;;;;20.11;43.88;98386.78;4873192;29;20040;-94
2024/03/28 07:54:11;;;;;;;23.02;5.45;;;;;;;20.16;43.33;98382.97;4855507;29;20052;-94
2024/03/28 07:56:59;;;;;;;14.90;4.00;;;;;;;20.18;43.71;98378.72;4853045;29;20100;-95
2024/03/28 07:59:25;;;;;;;16.95;3.83;;;;;;;19.91;44.43;98371.47;4861859;29;20032;-92
2024/03/28 08:01:51;;;;;;;16.67;3.60;;;;;;;19.86;44.33;98369.00;4837668;29;20201;-94
2024/03/28 08:04:20;;;;;;;18.38;3.80;;;;;;;19.94;44.52;98359.81;4858408;29;20048;-92
2024/03/28 08:06:47;;;;;;;18.48;3.80;;;;;;;20.24;43.84;98394.88;4854352;29;20033;-95
2024/03/28 08:09:24;;;;;;;21.88;3.75;;;;;;;20.41;43.58;98405.38;4836846;29;20036;-94
2024/03/28 08:12:15;;;;;;;14.90;4.00;;;;;;;20.40;43.85;98403.81;4852217;29;20041;-94
2024/03/28 08:14:49;;;;;;;16.35;3.83;;;;;;;20.55;43.25;98433.03;4854429;29;20068;-95
2024/03/28 08:17:16;;;;;;;16.13;3.55;;;;;;;20.57;42.80;98529.19;4853778;29;20096;-95
2024/03/28 08:19:48;;;;;;;25.58;3.95;;;;;;;19.98;43.59;98514.53;4854026;29;20029;-94
2024/03/28 08:22:16;;;;;;;16.83;3.42;;;;;;;19.61;44.85;98545.88;4854129;29;20483;-94
2024/03/28 08:24:59;;;;;;;16.08;3.50;;;;;;;19.03;45.83;98540.75;4873414;29;20095;-92
2024/03/28 08:27:34;;;;;;;16.00;4.97;;;;;;;18.78;46.61;98535.34;4888579;29;20044;-95
2024/03/28 08:30:32;;;;;;;19.83;3.88;;;;;;;18.86;46.57;98566.38;4874589;29;20140;-95
2024/03/28 08:32:58;;;;;;;14.95;4.43;;;;;;;18.87;47.21;98581.59;4846438;29;20067;-94
2024/03/28 08:35:39;;;;;;;11.25;3.45;;;;;;;18.73;47.53;98587.38;4847727;29;20042;-93
2024/03/28 08:38:04;;;;;;;15.87;3.93;;;;;;;18.58;48.04;98573.28;4831588;29;20128;-93
2024/03/28 08:40:31;;;;;;;16.63;3.97;;;;;;;18.43;48.51;98567.72;4848245;29;20573;-94
2024/03/28 08:43:21;;;;;;;17.80;4.38;;;;;;;18.59;48.38;98582.25;4834986;29;20042;-96
2024/03/28 08:45:57;;;;;;;;;;;;;;;;;;;;;
2024/03/28 08:48:26;;;;;;;18.15;3.60;;;;;;;18.83;47.48;98577.97;4846116;29;20094;-93
2024/03/28 08:50:52;;;;;;;16.48;4.13;;;;;;;18.72;47.50;98583.84;4830616;29;20046;-91
2024/03/28 08:53:28;;;;;;;15.77;4.63;;;;;;;18.64;48.23;98576.59;4836624;29;20030;-96
2024/03/28 08:56:00;;;;;;;16.98;3.88;;;;;;;18.61;48.66;98607.25;4822189;29;20034;-94
2024/03/28 08:58:36;;;;;;;19.75;4.35;;;;;;;18.49;48.57;98582.72;4822049;29;20034;-96
2024/03/28 09:01:04;;;;;;;18.25;3.97;;;;;;;18.62;48.61;98597.16;4827391;29;20076;-94
2024/03/28 09:03:30;;;;;;;14.75;4.63;;;;;;;18.69;48.39;98594.66;4826377;29;20050;-96
2024/03/28 09:05:59;;;;;;;16.83;4.28;;;;;;;18.68;48.27;98585.69;4829666;29;20522;-95
2024/03/28 09:08:27;;;;;;;10.35;3.60;;;;;;;18.96;48.21;98612.28;4825921;29;20433;-94
2024/03/28 09:10:54;;;;;;;16.63;4.15;;;;;;;18.89;48.09;98587.50;4872852;29;20499;-94
2024/03/28 09:13:41;;;;;;;19.98;4.68;;;;;;;19.11;47.27;98588.94;4886174;29;20012;-95
2024/03/28 09:16:07;;;;;;;17.10;4.10;;;;;;;19.25;47.12;98596.75;4882193;29;20044;-93
2024/03/28 09:18:36;;;;;;;17.40;4.25;;;;;;;19.32;47.13;98596.97;4856499;29;20037;-95
2024/03/28 09:21:08;;;;;;;18.45;3.90;;;;;;;19.31;47.08;98590.72;4863435;29;20029;-95
2024/03/28 09:23:39;;;;;;;19.42;3.95;;;;;;;19.53;46.64;98624.91;4847849;29;20029;-95
2024/03/28 09:26:13;;;;;;;14.93;3.53;;;;;;;19.40;46.92;98623.31;4863176;29;20033;-96
2024/03/28 09:28:43;;;;;;;16.73;3.05;;;;;;;19.25;47.18;98611.19;4852070;29;20028;-94
2024/03/28 09:31:22;;;;;;;15.07;3.17;;;;;;;19.33;46.35;98610.25;4867154;29;20048;-94
2024/03/28 09:33:48;;;;;;;22.80;3.80;;;;;;;19.47;46.57;98601.69;4850356;29;20129;-95
2024/03/28 09:36:18;;;;;;;23.52;4.40;;;;;;;19.69;46.45;98581.22;4866195;29;20460;-91
2024/03/28 09:39:14;;;;;;;16.27;3.50;;;;;;;19.86;45.58;98582.09;4875755;29;20027;-94
2024/03/28 09:41:48;;;;;;;18.38;3.70;;;;;;;20.01;45.04;98581.34;4887514;29;20051;-90
2024/03/28 09:44:21;;;;;;;22.20;4.18;;;;;;;20.16;45.49;98601.63;4897757;29;20048;-90
2024/03/28 09:46:49;;;;;;;17.00;3.92;;;;;;;19.96;45.39;98593.34;4890307;29;20051;-90
2024/03/28 09:49:18;;;;;;;13.52;3.55;;;;;;;20.29;43.73;98589.47;4874398;29;20032;-90
2024/03/28 09:51:44;;;;;;;23.25;4.90;;;;;;;20.69;43.76;98621.34;4871020;29;20036;-90
2024/03/28 09:54:09;;;;;;;25.25;4.13;;;;;;;20.64;43.21;98583.31;4862645;29;20035;-91
2024/03/28 09:56:37;;;;;;;28.85;4.63;;;;;;;20.72;44.30;98579.59;4882741;29;20130;-92
2024/03/28 09:59:08;;;;;;;20.80;4.38;;;;;;;20.71;43.41;98579.94;4883884;29;20020;-90
2024/03/28 10:01:36;;;;;;;17.35;4.30;;;;;;;20.63;43.18;98562.59;4871462;29;20044;-91
2024/03/28 10:04:24;;;;;;;19.50;4.35;;;;;;;21.10;42.52;98590.97;4876365;29;20425;-91
2024/03/28 10:06:52;;;;;;;18.30;4.38;;;;;;;21.02;42.97;98579.06;4887303;29;20136;-91
2024/03/28 10:09:22;;;;;;;26.15;6.95;;;;;;;21.07;42.06;98565.13;4865672;29;20033;-90
2024/03/28 10:11:50;;;;;;;30.60;6.00;;;;;;;21.32;41.59;98578.53;4875704;29;20033;-91
2024/03/28 10:14:26;;;;;;;19.38;6.63;;;;;;;21.43;42.14;98579.56;4866068;29;20032;-91
2024/03/28 10:17:06;;;;;;;21.30;6.10;;;;;;;21.83;41.85;98592.13;4862198;29;20403;-89
2024/03/28 10:19:33;;;;;;;19.27;5.05;;;;;;;21.84;40.93;98569.03;4869960;29;20048;-94
2024/03/28 10:22:09;;;;;;;17.88;4.13;;;;;;;22.01;39.81;98575.97;4879830;29;20048;-95
2024/03/28 10:24:36;;;;;;;19.73;4.72;;;;;;;22.26;39.71;98589.38;4876910;29;20475;-93
2024/03/28 10:27:19;;;;;;;14.63;3.95;;;;;;;22.39;38.98;98577.84;4872073;29;20029;-94
2024/03/28 10:29:58;;;;;;;28.98;4.95;;;;;;;22.30;38.70;98571.81;4869095;29;20072;-94
2024/03/28 10:32:27;;;;;;;28.65;5.28;;;;;;;22.20;38.95;98559.50;4857711;29;20037;-96
2024/03/28 10:34:56;;;;;;;27.33;5.03;;;;;;;22.35;38.26;98562.47;4873168;29;20029;-94
2024/03/28 10:37:29;;;;;;;27.45;4.82;;;;;;;22.36;38.82;98559.38;4855764;29;20113;-95
2024/03/28 10:39:57;;;;;;;23.95;5.13;;;;;;;22.79;37.11;98590.22;4869358;29;20021;-96
2024/03/28 10:42:26;;;;;;;30.52;6.55;;;;;;;22.83;37.69;98578.50;4853809;29;20400;-95
2024/03/28 10:44:59;;;;;;;27.08;4.60;;;;;;;22.88;36.38;98575.44;4869495;29;20048;-94
2024/03/28 10:47:25;;;;;;;28.20;4.57;;;;;;;22.53;37.69;98598.44;4877500;29;20025;-93
2024/03/28 10:50:27;;;;;;;18.92;4.28;;;;;;;22.31;37.54;98587.13;4858717;29;20033;-95
2024/03/28 10:52:53;;;;;;;14.88;3.50;;;;;;;22.00;41.14;98591.66;4854196;29;20029;-94
2024/03/28 10:55:32;;;;;;;18.83;4.07;;;;;;;21.76;41.50;98575.53;4835017;29;20034;-92
2024/03/28 10:57:58;;;;;;;15.48;3.60;;;;;;;21.66;42.50;98574.16;4838423;29;20092;-94
2024/03/28 11:00:23;;;;;;;21.42;4.18;;;;;;;21.64;42.23;98578.41;4855061;29;20080;-93
2024/03/28 11:03:17;;;;;;;;;;;;;;;;;;;;;
2024/03/28 11:06:11;;;;;;;14.10;3.88;;;;;;;21.50;43.07;98590.69;4854854;29;20431;-93
2024/03/28 11:08:38;;;;;;;16.45;3.75;;;;;;;21.27;43.60;98574.16;4871015;29;20032;-95
2024/03/28 11:11:04;;;;;;;21.92;3.85;;;;;;;21.17;43.20;98586.47;4878334;29;20498;-90
2024/03/28 11:13:41;;;;;;;19.85;4.10;;;;;;;21.17;43.14;98583.72;4852473;29;20061;-93
2024/03/28 11:16:15;;;;;;;16.10;3.30;;;;;;;21.13;42.63;98579.31;4868684;29;20036;-93
2024/03/28 11:22:13;;;;;;;22.23;4.28;;;;;;;21.20;42.25;98584.94;4878678;29;20053;-95
2024/03/28 11:24:39;;;;;;;21.33;3.40;;;;;;;21.22;42.85;98593.59;4847414;29;20032;-93
2024/03/28 11:27:05;;;;;;;21.70;4.45;;;;;;;21.39;43.43;98609.63;4859521;29;20033;-94
2024/03/28 11:29:40;;;;;;;17.73;3.35;;;;;;;21.30;44.96;98616.44;4849753;29;20029;-93
2024/03/28 11:32:34;;;;;;;19.27;3.63;;;;;;;21.23;44.42;98608.88;4885751;29;20063;-96
2024/03/28 11:35:41;;;;;;;18.70;3.60;;;;;;;21.14;44.49;98628.22;4864833;29;20067;-95
2024/03/28 11:38:09;;;;;;;15.25;4.53;;;;;;;20.95;45.34;98609.03;4886442;29;20112;-92
2024/03/28 11:40:35;;;;;;;19.00;4.35;;;;;;;20.96;45.01;98624.31;4859922;29;20064;-91
2024/03/28 11:43:15;;;;;;;17.70;3.85;;;;;;;20.87;45.24;98607.28;4854651;29;20032;-89
2024/03/28 11:45:50;;;;;;;17.48;3.72;;;;;;;20.84;45.26;98621.69;4863164;29;20029;-92
2024/03/28 11:48:20;;;;;;;14.88;2.55;;;;;;;20.77;41.62;98622.28;4875407;29;20056;-92
2024/03/28 11:50:49;;;;;;;19.65;2.95;;;;;;;20.66;40.92;98581.00;4857204;29;20036;-91
2024/03/28 11:53:28;;;;;;;20.58;3.10;;;;;;;20.79;39.74;98606.31;4878826;29;20119;-92
2024/03/28 11:56:03;;;;;;;11.82;2.60;;;;;;;20.94;38.50;98604.72;4859892;29;20028;-92